Terminal Aerodrome Forecast
Issued by NWS Tulsa, OK

Home | Current Version | Previous Version | Text Only | Print | Product List | Glossary On
Versions: 1 2 3 4 5 6 7 8 9 10 11 12 13 14 15 16
000
FTUS44 KTSA 260500
TAFFSM
TAF
KFSM 260520Z 2606/2706 00000KT P6SM SKC
      TEMPO 2608/2610 2SM BR
     FM261000 07003KT 2SM BR SCT002
      TEMPO 2610/2613 3/4SM BR BKN001
     FM261400 08005KT P6SM SKC
     FM261800 21012KT P6SM SKC
     FM270100 14005KT P6SM SKC=

USA.gov is the U.S. government's official web portal to all federal, state and local government web resources and services.